Time,TemperatureF,DewpointF,PressureIn,WindDirection,WindDirectionDegrees,WindSpeedMPH,WindSpeedGustMPH,Humidity,HourlyPrecipIn,Conditions,Clouds,dailyrainin,SoftwareType,DateUTC
2013-01-02 00:02:00,14.0,10.0,-100.00,SSW,200,4.0,7.0,86,0.00,,,0.00,,2013-01-02 00:02:00,
2013-01-02 00:12:00,14.0,10.0,-100.00,SSW,200,4.0,9.0,86,0.00,,,0.00,,2013-01-02 00:12:00,
2013-01-02 00:22:00,15.0,10.0,-100.00,SSW,205,3.0,9.0,86,0.00,,,0.00,,2013-01-02 00:22:00,
2013-01-02 00:32:00,15.0,12.0,-100.00,SSW,205,4.0,10.0,87,0.00,,,0.00,,2013-01-02 00:32:00,
2013-01-02 00:42:00,15.0,12.0,-100.00,SSW,200,4.0,7.0,87,0.00,,,0.00,,2013-01-02 00:42:00,
2013-01-02 00:52:00,15.0,12.0,-100.00,SSW,205,4.0,9.0,87,0.00,,,0.00,,2013-01-02 00:52:00,
2013-01-02 01:02:00,16.0,12.0,-100.00,SW,215,4.0,8.0,87,0.00,,,0.00,,2013-01-02 01:02:00,
2013-01-02 01:12:00,16.0,12.0,-100.00,South,175,4.0,8.0,87,0.00,,,0.00,,2013-01-02 01:12:00,
2013-01-02 01:22:00,16.0,12.0,-100.00,South,175,2.0,9.0,87,0.00,,,0.00,,2013-01-02 01:22:00,
2013-01-02 01:32:00,16.0,14.0,-100.00,South,180,2.0,7.0,87,0.00,,,0.00,,2013-01-02 01:32:00,
2013-01-02 01:42:00,16.0,14.0,-100.00,SSE,160,3.0,4.0,87,0.00,,,0.00,,2013-01-02 01:42:00,
2013-01-02 01:52:00,16.0,14.0,-100.00,SSE,160,2.0,4.0,88,0.00,,,0.00,,2013-01-02 01:52:00,
2013-01-02 02:02:00,16.0,14.0,-100.00,SSE,150,3.0,5.0,88,0.00,,,0.00,,2013-01-02 02:02:00,
2013-01-02 02:12:00,16.0,14.0,-100.00,SE,145,2.0,4.0,88,0.00,,,0.00,,2013-01-02 02:12:00,
2013-01-02 02:22:00,16.0,14.0,-100.00,South,175,2.0,4.0,88,0.00,,,0.00,,2013-01-02 02:22:00,
2013-01-02 02:32:00,16.0,14.0,-100.00,SSE,160,2.0,4.0,89,0.00,,,0.00,,2013-01-02 02:32:00,
2013-01-02 02:42:00,17.0,14.0,-100.00,SSE,160,1.0,4.0,89,0.00,,,0.00,,2013-01-02 02:42:00,
2013-01-02 02:52:00,17.0,14.0,-100.00,SSE,150,2.0,3.0,89,0.00,,,0.00,,2013-01-02 02:52:00,
2013-01-02 03:02:00,17.0,14.0,-100.00,SSE,165,2.0,3.0,90,0.00,,,0.00,,2013-01-02 03:02:00,
2013-01-02 03:12:00,17.0,14.0,-100.00,SSE,160,2.0,4.0,90,0.00,,,0.00,,2013-01-02 03:12:00,
2013-01-02 03:22:00,17.0,16.0,-100.00,South,190,1.0,6.0,90,0.00,,,0.00,,2013-01-02 03:22:00,
2013-01-02 03:32:00,18.0,16.0,-100.00,SSE,155,2.0,6.0,90,0.00,,,0.00,,2013-01-02 03:32:00,
2013-01-02 03:42:00,18.0,16.0,-100.00,SSE,160,3.0,6.0,91,0.00,,,0.00,,2013-01-02 03:42:00,
2013-01-02 03:52:00,18.0,16.0,-100.00,South,175,2.0,6.0,91,0.00,,,0.00,,2013-01-02 03:52:00,
2013-01-02 04:02:00,19.0,16.0,-100.00,South,180,2.0,6.0,91,0.00,,,0.00,,2013-01-02 04:02:00,
2013-01-02 04:12:00,19.0,18.0,-100.00,South,190,2.0,5.0,91,0.00,,,0.00,,2013-01-02 04:12:00,
2013-01-02 04:22:00,19.0,18.0,-100.00,South,175,3.0,6.0,91,0.00,,,0.00,,2013-01-02 04:22:00,
2013-01-02 04:32:00,19.0,18.0,-100.00,South,180,3.0,6.0,91,0.00,,,0.00,,2013-01-02 04:32:00,
2013-01-02 04:42:00,20.0,18.0,-100.00,South,185,3.0,11.0,92,0.00,,,0.00,,2013-01-02 04:42:00,
2013-01-02 04:52:00,20.0,18.0,-100.00,South,190,4.0,7.0,92,0.00,,,0.00,,2013-01-02 04:52:00,
2013-01-02 05:03:00,20.0,18.0,-100.00,SSW,210,4.0,8.0,92,0.00,,,0.00,,2013-01-02 05:03:00,
2013-01-02 05:12:00,20.0,18.0,-100.00,SSW,205,6.0,9.0,92,0.00,,,0.00,,2013-01-02 05:12:00,
2013-01-02 05:22:00,20.0,18.0,-100.00,SSW,210,4.0,9.0,92,0.00,,,0.00,,2013-01-02 05:22:00,
2013-01-02 05:33:00,20.0,19.0,-100.00,SSW,205,6.0,12.0,92,0.00,,,0.00,,2013-01-02 05:33:00,
2013-01-02 05:42:00,20.0,19.0,-100.00,South,175,3.0,8.0,92,0.00,,,0.00,,2013-01-02 05:42:00,
2013-01-02 05:52:00,20.0,19.0,-100.00,South,180,5.0,12.0,92,0.00,,,0.00,,2013-01-02 05:52:00,
2013-01-02 06:02:00,20.0,19.0,-100.00,SSW,200,4.0,9.0,92,0.00,,,0.00,,2013-01-02 06:02:00,
2013-01-02 06:12:00,20.0,19.0,-100.00,South,175,2.0,9.0,93,0.00,,,0.00,,2013-01-02 06:12:00,
2013-01-02 06:22:00,20.0,19.0,-100.00,SSW,205,5.0,11.0,93,0.00,,,0.00,,2013-01-02 06:22:00,
2013-01-02 06:32:00,20.0,19.0,-100.00,SW,225,4.0,11.0,93,0.00,,,0.00,,2013-01-02 06:32:00,
2013-01-02 06:42:00,20.0,19.0,-100.00,West,270,4.0,8.0,93,0.00,,,0.00,,2013-01-02 06:42:00,
2013-01-02 06:52:00,20.0,19.0,-100.00,SSW,205,4.0,7.0,93,0.00,,,0.00,,2013-01-02 06:52:00,
2013-01-02 07:02:00,20.0,19.0,-100.00,SW,220,6.0,11.0,93,0.00,,,0.00,,2013-01-02 07:02:00,
2013-01-02 07:12:00,20.0,19.0,-100.00,SW,230,5.0,11.0,93,0.00,,,0.00,,2013-01-02 07:12:00,
2013-01-02 07:22:00,20.0,18.0,-100.00,South,190,2.0,8.0,93,0.00,,,0.00,,2013-01-02 07:22:00,
2013-01-02 07:32:00,20.0,18.0,-100.00,SSW,200,6.0,11.0,93,0.00,,,0.00,,2013-01-02 07:32:00,
2013-01-02 07:42:00,20.0,18.0,-100.00,SW,230,3.0,11.0,93,0.00,,,0.00,,2013-01-02 07:42:00,
2013-01-02 07:52:00,20.0,18.0,-100.00,SSW,205,5.0,9.0,93,0.00,,,0.00,,2013-01-02 07:52:00,
2013-01-02 08:02:00,20.0,18.0,-100.00,SSW,210,4.0,8.0,93,0.00,,,0.00,,2013-01-02 08:02:00,
2013-01-02 08:11:00,20.0,18.0,-100.00,South,180,1.0,5.0,93,0.00,,,0.00,,2013-01-02 08:11:00,
2013-01-02 08:22:00,20.0,18.0,-100.00,SW,215,4.0,9.0,93,0.00,,,0.00,,2013-01-02 08:22:00,
2013-01-02 08:32:00,20.0,18.0,-100.00,SSW,200,2.0,6.0,93,0.00,,,0.00,,2013-01-02 08:32:00,
2013-01-02 08:42:00,19.0,18.0,-100.00,SSW,195,2.0,6.0,93,0.00,,,0.00,,2013-01-02 08:42:00,
2013-01-02 08:52:00,19.0,18.0,-100.00,South,190,2.0,7.0,93,0.00,,,0.00,,2013-01-02 08:52:00,
2013-01-02 09:02:00,19.0,18.0,-100.00,SSW,205,4.0,8.0,93,0.00,,,0.00,,2013-01-02 09:02:00,
2013-01-02 09:12:00,19.0,18.0,-100.00,South,185,4.0,7.0,93,0.00,,,0.00,,2013-01-02 09:12:00,
2013-01-02 09:22:00,19.0,18.0,-100.00,SSW,205,3.0,7.0,93,0.00,,,0.00,,2013-01-02 09:22:00,
2013-01-02 09:32:00,19.0,18.0,-100.00,SSW,200,6.0,12.0,93,0.00,,,0.00,,2013-01-02 09:32:00,
2013-01-02 09:43:00,18.0,18.0,-100.00,SSW,205,6.0,11.0,94,0.00,,,0.00,,2013-01-02 09:43:00,
2013-01-02 09:52:00,18.0,18.0,-100.00,South,190,4.0,10.0,94,0.00,,,0.00,,2013-01-02 09:52:00,
2013-01-02 10:02:00,18.0,18.0,-100.00,SSW,195,4.0,10.0,94,0.00,,,0.00,,2013-01-02 10:02:00,
2013-01-02 10:12:00,18.0,18.0,-100.00,SSW,205,3.0,7.0,95,0.00,,,0.00,,2013-01-02 10:12:00,
2013-01-02 10:22:00,18.0,18.0,-100.00,SW,220,6.0,10.0,95,0.00,,,0.00,,2013-01-02 10:22:00,
2013-01-02 10:32:00,18.0,18.0,-100.00,South,190,4.0,7.0,95,0.00,,,0.00,,2013-01-02 10:32:00,
2013-01-02 10:42:00,18.0,16.0,-100.00,South,190,4.0,8.0,95,0.00,,,0.00,,2013-01-02 10:42:00,
2013-01-02 10:52:00,18.0,16.0,-100.00,South,185,2.0,7.0,95,0.00,,,0.00,,2013-01-02 10:52:00,
2013-01-02 11:02:00,18.0,18.0,-100.00,SSW,210,4.0,9.0,95,0.00,,,0.00,,2013-01-02 11:02:00,
2013-01-02 11:12:00,18.0,18.0,-100.00,SSE,160,5.0,9.0,96,0.00,,,0.00,,2013-01-02 11:12:00,
2013-01-02 11:22:00,17.0,16.0,-100.00,SE,145,7.0,10.0,96,0.00,,,0.00,,2013-01-02 11:22:00,
2013-01-02 11:32:00,17.0,16.0,-100.00,SSE,155,7.0,11.0,96,0.00,,,0.00,,2013-01-02 11:32:00,
2013-01-02 11:42:00,17.0,16.0,-100.00,SSE,165,6.0,9.0,97,0.00,,,0.00,,2013-01-02 11:42:00,
2013-01-02 11:52:00,17.0,16.0,-100.00,SSE,150,7.0,10.0,97,0.00,,,0.00,,2013-01-02 11:52:00,
2013-01-02 12:02:00,17.0,16.0,-100.00,SE,145,7.0,10.0,97,0.00,,,0.00,,2013-01-02 12:02:00,
2013-01-02 12:12:00,17.0,16.0,-100.00,SSE,150,7.0,10.0,97,0.00,,,0.00,,2013-01-02 12:12:00,
2013-01-02 12:22:00,16.0,16.0,-100.00,SSE,160,6.0,11.0,98,0.00,,,0.00,,2013-01-02 12:22:00,
2013-01-02 12:32:00,16.0,16.0,-100.00,SSE,155,7.0,11.0,98,0.00,,,0.00,,2013-01-02 12:32:00,
2013-01-02 12:42:00,16.0,16.0,-100.00,SSE,160,7.0,9.0,98,0.00,,,0.00,,2013-01-02 12:42:00,
2013-01-02 12:52:00,16.0,16.0,-100.00,South,170,4.0,7.0,98,0.00,,,0.00,,2013-01-02 12:52:00,
2013-01-02 13:02:00,16.0,16.0,-100.00,SSE,160,7.0,10.0,99,0.00,,,0.00,,2013-01-02 13:02:00,
2013-01-02 13:22:00,16.0,16.0,-100.00,South,185,3.0,9.0,99,0.00,,,0.00,,2013-01-02 13:22:00,
2013-01-02 14:22:00,16.0,16.0,-100.00,SSW,210,2.0,7.0,99,0.00,,,0.00,,2013-01-02 14:22:00,
2013-01-02 14:53:00,15.0,14.0,-100.00,SSE,160,6.0,12.0,99,0.00,,,0.00,,2013-01-02 14:53:00,
2013-01-02 15:02:00,15.0,14.0,-100.00,SSE,160,8.0,11.0,99,0.00,,,0.00,,2013-01-02 15:02:00,
2013-01-02 15:12:00,15.0,14.0,-100.00,SSE,155,6.0,11.0,99,0.00,,,0.00,,2013-01-02 15:12:00,
2013-01-02 15:22:00,14.0,14.0,-100.00,SSE,155,9.0,11.0,99,0.00,,,0.00,,2013-01-02 15:22:00,
2013-01-02 15:33:00,14.0,14.0,-100.00,SSE,160,10.0,14.0,99,0.00,,,0.00,,2013-01-02 15:33:00,
2013-01-02 15:42:00,14.0,14.0,-100.00,SSE,155,4.0,11.0,99,0.00,,,0.00,,2013-01-02 15:42:00,
2013-01-02 15:52:00,14.0,14.0,-100.00,SSE,160,7.0,11.0,99,0.00,,,0.00,,2013-01-02 15:52:00,
2013-01-02 16:12:00,14.0,14.0,-100.00,SSE,160,5.0,9.0,99,0.00,,,0.00,,2013-01-02 16:12:00,
2013-01-02 16:22:00,14.0,14.0,-100.00,SSE,160,7.0,9.0,99,0.00,,,0.00,,2013-01-02 16:22:00,
2013-01-02 16:33:00,14.0,14.0,-100.00,SSE,155,6.0,10.0,99,0.00,,,0.00,,2013-01-02 16:33:00,
2013-01-02 16:42:00,14.0,14.0,-100.00,SE,145,6.0,9.0,99,0.00,,,0.00,,2013-01-02 16:42:00,
2013-01-02 16:53:00,14.0,14.0,-100.00,SE,140,6.0,10.0,99,0.00,,,0.00,,2013-01-02 16:53:00,
2013-01-02 17:03:00,14.0,14.0,-100.00,SSE,155,6.0,11.0,99,0.00,,,0.00,,2013-01-02 17:03:00,
2013-01-02 17:12:00,14.0,14.0,-100.00,SE,140,7.0,11.0,99,0.00,,,0.00,,2013-01-02 17:12:00,
2013-01-02 17:33:00,15.0,14.0,-100.00,SSE,150,4.0,6.0,99,0.00,,,0.00,,2013-01-02 17:33:00,
2013-01-02 17:43:00,15.0,14.0,-100.00,ESE,120,4.0,7.0,99,0.00,,,0.00,,2013-01-02 17:43:00,
2013-01-02 18:02:00,15.0,14.0,-100.00,SE,130,9.0,11.0,98,0.00,,,0.00,,2013-01-02 18:02:00,
2013-01-02 18:12:00,15.0,14.0,-100.00,SSE,155,6.0,10.0,98,0.00,,,0.00,,2013-01-02 18:12:00,
2013-01-02 18:22:00,15.0,14.0,-100.00,SSE,150,6.0,10.0,97,0.00,,,0.00,,2013-01-02 18:22:00,
2013-01-02 18:33:00,15.0,14.0,-100.00,SSE,150,4.0,9.0,97,0.00,,,0.00,,2013-01-02 18:33:00,
2013-01-02 18:42:00,15.0,14.0,-100.00,SE,135,7.0,9.0,96,0.00,,,0.00,,2013-01-02 18:42:00,
2013-01-02 18:53:00,16.0,14.0,-100.00,SE,135,6.0,9.0,96,0.00,,,0.00,,2013-01-02 18:53:00,
2013-01-02 19:03:00,16.0,14.0,-100.00,SE,140,6.0,11.0,95,0.00,,,0.00,,2013-01-02 19:03:00,
2013-01-02 19:12:00,16.0,14.0,-100.00,ESE,120,4.0,9.0,95,0.00,,,0.00,,2013-01-02 19:12:00,
2013-01-02 19:22:00,16.0,14.0,-100.00,SE,135,6.0,9.0,94,0.00,,,0.00,,2013-01-02 19:22:00,
2013-01-02 19:32:00,16.0,14.0,-100.00,SSE,150,6.0,8.0,93,0.00,,,0.00,,2013-01-02 19:32:00,
2013-01-02 19:42:00,16.0,14.0,-100.00,SSE,150,6.0,8.0,93,0.00,,,0.00,,2013-01-02 19:42:00,
2013-01-02 19:52:00,16.0,14.0,-100.00,SE,135,6.0,7.0,92,0.00,,,0.00,,2013-01-02 19:52:00,
2013-01-02 20:02:00,16.0,14.0,-100.00,SE,145,4.0,9.0,92,0.00,,,0.00,,2013-01-02 20:02:00,
2013-01-02 20:12:00,16.0,14.0,-100.00,SE,140,4.0,7.0,92,0.00,,,0.00,,2013-01-02 20:12:00,
2013-01-02 20:22:00,16.0,14.0,-100.00,SE,130,4.0,7.0,92,0.00,,,0.00,,2013-01-02 20:22:00,
2013-01-02 20:33:00,16.0,14.0,-100.00,SE,130,6.0,8.0,91,0.00,,,0.00,,2013-01-02 20:33:00,
2013-01-02 20:42:00,16.0,14.0,-100.00,SE,135,7.0,9.0,91,0.00,,,0.00,,2013-01-02 20:42:00,
2013-01-02 20:53:00,16.0,14.0,-100.00,SSE,155,7.0,10.0,91,0.00,,,0.00,,2013-01-02 20:53:00,
2013-01-02 21:03:00,16.0,14.0,-100.00,SE,135,6.0,10.0,91,0.00,,,0.00,,2013-01-02 21:03:00,
2013-01-02 21:12:00,16.0,14.0,-100.00,SSE,155,5.0,10.0,91,0.00,,,0.00,,2013-01-02 21:12:00,
2013-01-02 21:22:00,16.0,14.0,-100.00,SSE,150,6.0,7.0,92,0.00,,,0.00,,2013-01-02 21:22:00,
2013-01-02 21:32:00,16.0,14.0,-100.00,SSE,150,5.0,7.0,92,0.00,,,0.00,,2013-01-02 21:32:00,
2013-01-02 21:42:00,16.0,14.0,-100.00,SSE,160,6.0,7.0,92,0.00,,,0.00,,2013-01-02 21:42:00,
2013-01-02 21:52:00,16.0,14.0,-100.00,SE,130,6.0,8.0,92,0.00,,,0.00,,2013-01-02 21:52:00,
2013-01-02 22:03:00,16.0,14.0,-100.00,SE,135,6.0,7.0,92,0.00,,,0.00,,2013-01-02 22:03:00,
2013-01-02 22:12:00,16.0,14.0,-100.00,SE,135,6.0,8.0,93,0.00,,,0.00,,2013-01-02 22:12:00,
2013-01-02 22:22:00,16.0,14.0,-100.00,SE,125,3.0,7.0,93,0.00,,,0.00,,2013-01-02 22:22:00,
2013-01-02 22:32:00,16.0,14.0,-100.00,SSE,150,4.0,7.0,93,0.00,,,0.00,,2013-01-02 22:32:00,
2013-01-02 22:42:00,16.0,14.0,-100.00,SE,135,6.0,7.0,93,0.00,,,0.00,,2013-01-02 22:42:00,
2013-01-02 22:52:00,16.0,14.0,-100.00,SE,135,4.0,6.0,93,0.00,,,0.00,,2013-01-02 22:52:00,
2013-01-02 23:02:00,16.0,14.0,-100.00,SE,130,3.0,6.0,93,0.00,,,0.00,,2013-01-02 23:02:00,
2013-01-02 23:12:00,16.0,14.0,-100.00,East,95,4.0,6.0,93,0.00,,,0.00,,2013-01-02 23:12:00,
2013-01-02 23:22:00,16.0,14.0,-100.00,SE,130,4.0,6.0,93,0.00,,,0.00,,2013-01-02 23:22:00,
2013-01-02 23:33:00,16.0,14.0,-100.00,SSE,150,3.0,6.0,93,0.00,,,0.00,,2013-01-02 23:33:00,
2013-01-02 23:42:00,16.0,14.0,-100.00,SE,135,5.0,7.0,93,0.00,,,0.00,,2013-01-02 23:42:00,
2013-01-02 23:52:00,16.0,14.0,-100.00,SE,140,4.0,7.0,93,0.00,,,0.00,,2013-01-02 23:52:00,